createdAt,value
2018-03-23T00:05:53.974Z,15.77
2018-03-23T00:11:54.769Z,18.33
2018-03-23T00:15:55.463Z,18.13
2018-03-23T00:21:56.318Z,14.55
2018-03-23T00:25:57.139Z,15.64
2018-03-23T00:31:57.867Z,14.17
2018-03-23T00:37:58.714Z,14.36
2018-03-23T00:41:59.461Z,14.12
2018-03-23T00:48:00.242Z,14.32
2018-03-23T00:52:01.068Z,14.09
2018-03-23T00:58:01.736Z,14.38
2018-03-23T01:04:02.464Z,13.54
2018-03-23T01:08:03.391Z,12.9
2018-03-23T01:14:04.091Z,13.47
2018-03-23T01:18:04.806Z,13.38
2018-03-23T01:24:05.542Z,12.61
2018-03-23T01:30:06.332Z,13.55
2018-03-23T01:34:07.095Z,14.07
2018-03-23T01:40:07.847Z,12.86
2018-03-23T01:44:08.654Z,12.69
2018-03-23T01:50:09.346Z,13.55
2018-03-23T01:56:10.210Z,15.28
2018-03-23T02:00:10.906Z,13.8
2018-03-23T02:06:11.687Z,14.55
2018-03-23T02:10:12.380Z,13.22
2018-03-23T02:16:13.137Z,12.71
2018-03-23T02:22:13.956Z,12.41
2018-03-23T02:26:14.804Z,11.54
2018-03-23T02:32:15.532Z,11.39
2018-03-23T02:36:16.268Z,14.35
2018-03-23T02:42:17.010Z,13
2018-03-23T02:48:17.797Z,12.12
2018-03-23T02:52:18.504Z,11.23
2018-03-23T02:58:19.238Z,12.61
2018-03-23T03:02:19.990Z,12.31
2018-03-23T03:08:20.827Z,16.25
2018-03-23T03:14:21.804Z,15.01
2018-03-23T03:18:22.467Z,12.42
2018-03-23T03:24:23.259Z,13.44
2018-03-23T03:28:23.903Z,11.82
2018-03-23T03:34:24.700Z,14.32
2018-03-23T03:40:25.485Z,12.78
2018-03-23T03:44:26.292Z,12.08
2018-03-23T03:50:27.079Z,12.23
2018-03-23T03:54:27.805Z,13.14
2018-03-23T04:00:29.054Z,12.68
2018-03-23T04:06:29.776Z,12.77
2018-03-23T04:10:30.612Z,11.82
2018-03-23T04:16:31.244Z,14.99
2018-03-23T04:20:32.291Z,15
2018-03-23T04:26:32.933Z,15.02
2018-03-23T04:32:33.752Z,14.3
2018-03-23T04:36:34.496Z,13.89
2018-03-23T04:42:35.233Z,15.65
2018-03-23T04:46:36.245Z,13.83
2018-03-23T04:52:36.990Z,14.21
2018-03-23T04:58:37.761Z,15.77
2018-03-23T05:02:38.638Z,13.37
2018-03-23T05:08:39.432Z,15.06
2018-03-23T05:12:40.160Z,18.4
2018-03-23T05:18:40.909Z,15.63
2018-03-23T05:24:41.843Z,15.46
2018-03-23T05:28:42.573Z,15.91
2018-03-23T05:34:43.389Z,18.99
2018-03-23T05:38:44.216Z,17.98
2018-03-23T05:44:45.071Z,15.55
2018-03-23T05:50:46.071Z,18.44
2018-03-23T05:54:46.815Z,18.06
2018-03-23T06:00:47.563Z,15.27
2018-03-23T06:04:48.444Z,20.55
2018-03-23T06:10:49.167Z,16.47
2018-03-23T06:16:49.961Z,17.76
2018-03-23T06:20:50.857Z,17.98
2018-03-23T06:30:53.150Z,16.57
2018-03-23T06:30:53.359Z,18.1
2018-03-23T06:36:54.041Z,14.44
2018-03-23T06:42:54.816Z,17.09
2018-03-23T06:46:55.659Z,14.18
2018-03-23T06:52:56.408Z,19.22
2018-03-23T06:56:57.141Z,15.52
2018-03-23T07:02:57.861Z,14.61
2018-03-23T07:08:59.098Z,13.96
2018-03-23T07:12:59.924Z,14.24
2018-03-23T07:19:00.753Z,15.6
2018-03-23T07:23:01.494Z,14.72
2018-03-23T07:29:02.250Z,13.44
2018-03-23T07:33:03.105Z,13.98
2018-03-23T07:35:04.023Z,15.59
2018-03-23T07:39:04.648Z,17.98
2018-03-23T07:45:06.529Z,13.89
2018-03-23T07:49:07.524Z,13.16
2018-03-23T07:55:08.294Z,13.83
2018-03-23T07:59:09.177Z,13.57
2018-03-23T08:01:09.938Z,14.23
2018-03-23T08:05:10.707Z,14.13
2018-03-23T08:11:11.595Z,13.59
2018-03-23T08:15:12.794Z,14.36
2018-03-23T08:21:13.561Z,14.36
2018-03-23T08:25:14.373Z,13.89
2018-03-23T08:27:15.208Z,14.9
2018-03-23T08:31:15.909Z,13.71
2018-03-23T08:37:16.769Z,13.2
2018-03-23T08:41:17.473Z,13.19
2018-03-23T08:47:18.343Z,13.08
2018-03-23T08:51:19.053Z,13.54
2018-03-23T08:53:19.782Z,13.58
2018-03-23T08:57:20.467Z,12.83
2018-03-23T09:03:21.420Z,13.42
2018-03-23T09:07:22.262Z,13.65
2018-03-23T09:13:22.934Z,13.53
2018-03-23T09:17:23.818Z,13.07
2018-03-23T09:19:24.629Z,13.73
2018-03-23T09:23:25.575Z,12.18
2018-03-23T09:29:26.272Z,12.39
2018-03-23T09:33:27.333Z,11.99
2018-03-23T09:39:28.140Z,11.59
2018-03-23T09:43:28.881Z,12.47
2018-03-23T09:45:30.215Z,11.56
2018-03-23T09:49:31.216Z,12.66
2018-03-23T09:55:31.902Z,12.29
2018-03-23T09:59:32.737Z,12.33
2018-03-23T10:05:33.500Z,11.58
2018-03-23T10:09:34.213Z,12
2018-03-23T10:11:34.979Z,11.86
2018-03-23T10:15:35.653Z,12.26
2018-03-23T10:21:36.500Z,13.54
2018-03-23T10:25:37.222Z,12.22
2018-03-23T10:31:37.954Z,12.87
2018-03-23T10:35:38.643Z,12.23
2018-03-23T10:37:39.316Z,12.66
2018-03-23T10:41:39.965Z,12.17
2018-03-23T10:47:40.713Z,12.04
2018-03-23T10:51:41.471Z,11.76
2018-03-23T10:57:42.543Z,12.48
2018-03-23T11:01:43.370Z,13.15
2018-03-23T11:03:44.030Z,13.46
2018-03-23T11:07:45.439Z,12.61
2018-03-23T11:13:46.238Z,11.97
2018-03-23T11:17:47.111Z,12.16
2018-03-23T11:23:48.364Z,12.08
2018-03-23T11:27:49.072Z,13.2
2018-03-23T11:29:49.784Z,12.05
2018-03-23T11:33:50.533Z,13
2018-03-23T11:39:51.350Z,12.12
2018-03-23T11:43:52.144Z,13.83
2018-03-23T11:49:52.943Z,11.57
2018-03-23T11:53:53.821Z,10.23
2018-03-23T11:55:54.620Z,12.41
2018-03-23T11:59:55.420Z,12.04
2018-03-23T12:05:56.190Z,11.46
2018-03-23T12:09:56.919Z,11.28
2018-03-23T12:15:57.680Z,13.11
2018-03-23T12:19:58.396Z,11.36
2018-03-23T12:21:59.348Z,10.73
2018-03-23T12:26:00.002Z,11.39
2018-03-23T12:32:00.807Z,11.52
2018-03-23T12:36:01.686Z,10.75
2018-03-23T12:42:02.511Z,11.89
2018-03-23T12:46:03.320Z,11.76
2018-03-23T12:48:03.921Z,10.88
2018-03-23T12:52:04.636Z,10.61
2018-03-23T12:58:05.526Z,10.49
2018-03-23T13:02:06.968Z,11.75
2018-03-23T13:08:07.878Z,10.07
2018-03-23T13:12:08.528Z,9.45
2018-03-23T13:14:09.402Z,10.34
2018-03-23T13:18:10.241Z,9.85
2018-03-23T13:24:11.253Z,9.71
2018-03-23T13:28:12.109Z,9.65
2018-03-23T13:34:12.823Z,11.45
2018-03-23T13:38:13.478Z,9.95
2018-03-23T13:40:14.197Z,9.24
2018-03-23T13:44:15.084Z,8.63
2018-03-23T13:50:15.889Z,9.85
2018-03-23T13:54:16.639Z,9.17
2018-03-23T14:00:17.787Z,8.49
2018-03-23T14:04:18.590Z,8.39
2018-03-23T14:06:19.306Z,9.37
2018-03-23T14:10:20.111Z,9.3
2018-03-23T14:16:20.906Z,8.43
2018-03-23T14:20:21.551Z,8.15
2018-03-23T14:26:22.412Z,9.87
2018-03-23T14:30:23.592Z,8.47
2018-03-23T14:32:24.281Z,9.81
2018-03-23T14:36:25.068Z,8.87
2018-03-23T14:42:25.989Z,8.59
2018-03-23T14:46:26.764Z,8.39
2018-03-23T14:52:27.628Z,10.04
2018-03-23T14:56:28.371Z,8.49
2018-03-23T14:58:29.010Z,8.68
2018-03-23T15:02:29.758Z,9.04
2018-03-23T15:08:30.607Z,9.05
2018-03-23T15:12:31.371Z,8.25
2018-03-23T15:18:32.160Z,9.19
2018-03-23T15:22:33.063Z,7.73
2018-03-23T15:24:33.842Z,8.24
2018-03-23T15:28:34.697Z,8.63
2018-03-23T15:34:35.527Z,8.17
2018-03-23T15:38:36.524Z,7.38
2018-03-23T15:44:37.263Z,8.4
2018-03-23T15:48:37.971Z,8.42
2018-03-23T15:50:38.820Z,7.32
2018-03-23T15:54:39.519Z,7.25
2018-03-23T16:00:40.320Z,7.5
2018-03-23T16:04:41.237Z,6.8
2018-03-23T16:10:42.071Z,6.92
2018-03-23T16:14:42.818Z,6.35
2018-03-23T16:16:43.493Z,6.32
2018-03-23T16:20:44.192Z,6.65
2018-03-23T16:26:45.062Z,7.17
2018-03-23T16:30:45.829Z,6.86
2018-03-23T16:36:46.679Z,8.11
2018-03-23T16:40:47.834Z,7.42
2018-03-23T16:42:48.578Z,6.55
2018-03-23T16:46:49.268Z,6.49
2018-03-23T16:52:50.062Z,8.33
2018-03-23T16:56:51.040Z,7.41
2018-03-23T17:02:51.837Z,6.3
2018-03-23T17:06:52.735Z,5.92
2018-03-23T17:08:53.411Z,7.17
2018-03-23T17:12:54.463Z,5.89
2018-03-23T17:18:55.100Z,6.96
2018-03-23T17:28:58.315Z,7.16
2018-03-23T17:28:58.521Z,6.38
2018-03-23T17:32:59.395Z,6.24
2018-03-23T17:35:00.111Z,6.76
2018-03-23T17:39:00.877Z,7
2018-03-23T17:45:01.944Z,5.95
2018-03-23T17:49:02.649Z,5.08
2018-03-23T17:55:03.534Z,9.21
2018-03-23T17:59:04.163Z,9.87
2018-03-23T18:01:05.273Z,6.39
2018-03-23T18:05:05.954Z,5.8
2018-03-23T18:11:06.681Z,6.26
2018-03-23T18:15:07.438Z,5.7
2018-03-23T18:21:08.314Z,8.17
2018-03-23T18:25:09.079Z,7.58
2018-03-23T18:27:09.845Z,8.83
2018-03-23T18:31:10.685Z,8.59
2018-03-23T18:37:11.494Z,11.94
2018-03-23T18:41:12.294Z,12.52
2018-03-23T18:47:13.014Z,9.39
2018-03-23T18:51:13.717Z,9.38
2018-03-23T18:53:16.080Z,8.23
2018-03-23T18:57:16.789Z,8.41
2018-03-23T19:03:17.742Z,7.04
2018-03-23T19:07:18.507Z,6.86
2018-03-23T19:13:19.371Z,7.45
2018-03-23T19:17:20.270Z,7.54
2018-03-23T19:23:21.042Z,9.37
2018-03-23T19:29:21.818Z,10.27
2018-03-23T19:33:22.559Z,10.69
2018-03-23T19:39:23.304Z,9.33
2018-03-23T19:43:24.182Z,9.7
2018-03-23T19:45:25.391Z,9.35
2018-03-23T19:49:26.168Z,10.12
2018-03-23T19:55:28.075Z,11.38
2018-03-23T19:59:28.875Z,11.22
2018-03-23T20:05:29.683Z,10.6
2018-03-23T20:09:30.531Z,10.79
2018-03-23T20:15:31.806Z,10.76
2018-03-23T20:21:32.582Z,20.17
2018-03-23T20:25:33.368Z,16.05
2018-03-23T20:31:34.359Z,16.28
2018-03-23T20:35:35.052Z,16.76
2018-03-23T20:41:35.736Z,15.03
2018-03-23T20:47:36.579Z,18.58
2018-03-23T20:51:37.438Z,16.47
2018-03-23T20:57:38.326Z,20.23
2018-03-23T21:01:39.116Z,21.3
2018-03-23T21:07:39.867Z,18.93
2018-03-23T21:13:40.667Z,16.1
2018-03-23T21:17:41.364Z,17.83
2018-03-23T21:23:42.098Z,19.44
2018-03-23T21:27:42.995Z,19
2018-03-23T21:33:43.857Z,18.09
2018-03-23T21:39:44.560Z,23
2018-03-23T21:43:45.315Z,20.17
2018-03-23T21:49:46.096Z,25.54
2018-03-23T21:53:46.919Z,24.27
2018-03-23T21:59:47.660Z,21.6
2018-03-23T22:05:48.516Z,20.08
2018-03-23T22:09:49.287Z,19.23
2018-03-23T22:15:50.046Z,19.28
2018-03-23T22:19:50.854Z,19.1
2018-03-23T22:25:51.566Z,16.96
2018-03-23T22:31:52.289Z,19.19
2018-03-23T22:35:53.013Z,16.91
2018-03-23T22:41:53.782Z,17.35
2018-03-23T22:45:54.530Z,17.79
2018-03-23T22:51:55.293Z,14.86
2018-03-23T22:57:56.030Z,14.03
2018-03-23T23:01:56.740Z,13.21
2018-03-23T23:07:57.491Z,22.97
2018-03-23T23:11:58.410Z,18.51
2018-03-23T23:17:59.167Z,19.42
2018-03-23T23:24:00.214Z,20.14
2018-03-23T23:28:00.927Z,18.78
2018-03-23T23:34:01.677Z,21.54
2018-03-23T23:38:02.372Z,19.61
2018-03-23T23:44:03.255Z,20.52
2018-03-23T23:50:03.983Z,18.58
2018-03-23T23:54:04.705Z,17.1
